Terminal Aerodrome Forecast
Issued by NWS Omaha/Valley, NE

Home | Current Version | Previous Version | Graphics & Text | Print | Product List | Glossary On
Versions: 1 2 3 4 5 6 7 8 9 10 11 12 13 14 15 16 17 18 19 20 21 22 23 24 25 26 27 28 29 30 31 32 33 34 35
000
FTUS43 KOAX 222320
TAFOFK
TAF
KOFK 222320Z 2300/2324 12009KT P6SM OVC080
      TEMPO 2300/2304 5SM -SHRA OVC040
     FM230800 15005KT P6SM OVC025
     FM231200 14006KT 5SM BR OVC012
     FM231500 14009KT P6SM OVC020=

USA.gov is the U.S. government's official web portal to all federal, state and local government web resources and services.